createdAt,value
2019-05-06T00:01:48.045Z,73.89
2019-05-06T00:04:18.464Z,73.52
2019-05-06T00:06:48.910Z,72.84
2019-05-06T00:09:19.717Z,72.63
2019-05-06T00:11:50.102Z,73.51
2019-05-06T00:14:20.516Z,73.84
2019-05-06T00:16:51.013Z,73.73
2019-05-06T00:19:21.484Z,73.91
2019-05-06T00:21:53.954Z,73.88
2019-05-06T00:24:26.266Z,74.39
2019-05-06T00:27:04.743Z,75.03
2019-05-06T00:29:35.445Z,76.03
2019-05-06T00:32:06.004Z,76.95
2019-05-06T00:34:36.463Z,77.55
2019-05-06T00:37:06.938Z,77.47
2019-05-06T00:39:53.913Z,77.52
2019-05-06T00:42:44.581Z,77.59
2019-05-06T00:45:15.390Z,77.16
2019-05-06T00:47:45.807Z,76.57
2019-05-06T00:50:16.606Z,76.99
2019-05-06T00:52:47.169Z,76.81
2019-05-06T00:55:17.559Z,77.29
2019-05-06T00:57:47.972Z,77.81
2019-05-06T01:00:24.384Z,77.88
2019-05-06T01:02:54.958Z,77.82
2019-05-06T01:05:25.674Z,78.11
2019-05-06T01:07:56.068Z,78.48
2019-05-06T01:10:26.573Z,78.37
2019-05-06T01:13:11.651Z,78.16
2019-05-06T01:15:44.034Z,78.32
2019-05-06T01:18:14.624Z,78.66
2019-05-06T01:20:45.316Z,78.96
2019-05-06T01:23:15.744Z,78.06
2019-05-06T01:25:46.453Z,78.22
2019-05-06T01:28:16.936Z,78.39
2019-05-06T01:30:48.004Z,78.80
2019-05-06T01:33:18.402Z,79.27
2019-05-06T01:35:48.879Z,79.44
2019-05-06T01:38:24.314Z,79.41
2019-05-06T01:41:13.637Z,79.55
2019-05-06T01:43:44.588Z,79.70
2019-05-06T01:46:15.008Z,79.77
2019-05-06T01:48:48.252Z,80.27
2019-05-06T01:51:20.539Z,80.30
2019-05-06T01:53:54.307Z,79.81
2019-05-06T01:56:24.261Z,79.52
2019-05-06T01:58:54.781Z,79.90
2019-05-06T02:01:25.855Z,79.86
2019-05-06T02:03:56.321Z,79.43
2019-05-06T02:06:26.749Z,79.30
2019-05-06T02:08:57.233Z,75.87
2019-05-06T02:11:27.684Z,73.93
2019-05-06T02:13:58.140Z,73.36
2019-05-06T02:16:28.596Z,71.85
2019-05-06T02:18:59.467Z,70.95
2019-05-06T02:21:50.919Z,69.28
2019-05-06T02:24:25.643Z,67.44
2019-05-06T02:26:56.061Z,67.15
2019-05-06T02:29:29.199Z,66.59
2019-05-06T02:32:25.195Z,66.70
2019-05-06T02:34:56.756Z,66.48
2019-05-06T02:37:35.967Z,66.25
2019-05-06T02:40:24.658Z,66.23
2019-05-06T02:42:55.483Z,65.81
2019-05-06T02:45:26.162Z,65.61
2019-05-06T02:48:17.813Z,66.10
2019-05-06T02:51:03.718Z,66.26
2019-05-06T02:53:33.778Z,66.41
2019-05-06T02:56:04.730Z,65.44
2019-05-06T02:58:35.126Z,65.85
2019-05-06T03:01:05.656Z,64.98
2019-05-06T03:03:36.106Z,65.26
2019-05-06T03:06:06.533Z,64.64
2019-05-06T03:08:36.977Z,64.79
2019-05-06T03:11:07.372Z,65.17
2019-05-06T03:13:37.859Z,65.55
2019-05-06T03:16:08.681Z,65.83
2019-05-06T03:18:39.186Z,65.96
2019-05-06T03:21:33.670Z,66.27
2019-05-06T03:24:23.724Z,66.64
2019-05-06T03:26:57.043Z,67.27
2019-05-06T03:29:26.815Z,67.63
2019-05-06T03:31:57.600Z,67.98
2019-05-06T03:34:52.870Z,68.89
2019-05-06T03:37:00.490Z,69.20
2019-05-06T03:39:33.584Z,69.62
2019-05-06T03:42:04.639Z,69.78
2019-05-06T03:44:36.866Z,70.08
2019-05-06T03:47:14.037Z,70.42
2019-05-06T03:49:49.942Z,70.55
2019-05-06T03:52:19.284Z,70.96
2019-05-06T03:54:53.083Z,71.37
2019-05-06T03:57:23.942Z,71.91
2019-05-06T03:59:56.198Z,71.99
2019-05-06T04:02:27.005Z,72.37
2019-05-06T04:04:57.746Z,72.42
2019-05-06T04:07:29.740Z,72.66
2019-05-06T04:10:03.206Z,72.80
2019-05-06T04:12:35.061Z,72.95
2019-05-06T04:15:05.882Z,72.98
2019-05-06T04:18:03.617Z,73.14
2019-05-06T04:20:53.248Z,73.37
2019-05-06T04:23:49.123Z,73.89
2019-05-06T04:26:46.091Z,74.02
2019-05-06T04:29:14.230Z,74.46
2019-05-06T04:31:44.640Z,74.76
2019-05-06T04:34:19.434Z,75.26
2019-05-06T04:36:47.340Z,76.38
2019-05-06T04:39:17.963Z,76.94
2019-05-06T04:41:49.974Z,76.71
2019-05-06T04:44:23.509Z,76.26
2019-05-06T04:46:54.409Z,76.00
2019-05-06T04:49:25.482Z,75.82
2019-05-06T04:51:56.137Z,75.91
2019-05-06T04:54:27.192Z,76.22
2019-05-06T04:56:57.650Z,76.54
2019-05-06T04:59:28.474Z,76.59
2019-05-06T05:01:59.094Z,76.85
2019-05-06T05:04:32.617Z,77.13
2019-05-06T05:07:03.345Z,77.41
2019-05-06T05:09:34.356Z,77.38
2019-05-06T05:12:13.360Z,77.93
2019-05-06T05:15:03.336Z,77.35
2019-05-06T05:17:56.301Z,77.66
2019-05-06T05:20:36.902Z,77.81
2019-05-06T05:23:02.208Z,78.01
2019-05-06T05:25:32.875Z,78.51
2019-05-06T05:28:03.311Z,78.84
2019-05-06T05:30:34.021Z,79.00
2019-05-06T05:33:05.333Z,79.38
2019-05-06T05:35:36.103Z,79.48
2019-05-06T05:38:06.518Z,79.64
2019-05-06T05:40:37.107Z,79.68
2019-05-06T05:43:29.322Z,79.44
2019-05-06T05:45:59.775Z,79.51
2019-05-06T05:48:48.570Z,79.32
2019-05-06T05:51:19.043Z,78.61
2019-05-06T05:53:49.649Z,78.07
2019-05-06T05:56:20.212Z,77.79
2019-05-06T05:58:53.267Z,78.20
2019-05-06T06:01:24.770Z,78.34
2019-05-06T06:03:55.331Z,78.55
2019-05-06T06:06:25.922Z,77.59
2019-05-06T06:08:56.440Z,77.55
2019-05-06T06:11:34.961Z,76.49
2019-05-06T06:14:12.673Z,76.21
2019-05-06T06:17:05.368Z,77.02
2019-05-06T06:19:42.466Z,78.42
2019-05-06T06:22:16.673Z,79.58
2019-05-06T06:24:47.785Z,80.70
2019-05-06T06:27:18.540Z,81.42
2019-05-06T06:29:49.298Z,81.61
2019-05-06T06:32:23.159Z,82.44
2019-05-06T06:35:18.832Z,83.29
2019-05-06T06:38:12.765Z,83.75
2019-05-06T06:40:43.254Z,84.10
2019-05-06T06:43:18.017Z,84.15
2019-05-06T06:45:48.732Z,83.65
2019-05-06T06:48:19.441Z,83.31
2019-05-06T06:50:51.747Z,83.22
2019-05-06T06:53:22.155Z,82.92
2019-05-06T06:55:55.130Z,82.89
2019-05-06T06:58:38.124Z,82.98
2019-05-06T07:01:25.989Z,83.13
2019-05-06T07:04:15.835Z,82.25
2019-05-06T07:06:53.115Z,81.83
2019-05-06T07:09:23.672Z,82.05
2019-05-06T07:11:54.094Z,81.92
2019-05-06T07:14:24.552Z,81.96
2019-05-06T07:16:55.257Z,81.67
2019-05-06T07:19:34.232Z,81.44
2019-05-06T07:22:06.811Z,81.27
2019-05-06T07:24:36.895Z,81.18
2019-05-06T07:27:22.692Z,80.80
2019-05-06T07:29:52.965Z,80.44
2019-05-06T07:32:23.430Z,80.06
2019-05-06T07:34:54.115Z,80.39
2019-05-06T07:37:24.591Z,79.77
2019-05-06T07:39:55.312Z,78.76
2019-05-06T07:42:32.322Z,79.22
2019-05-06T07:45:32.909Z,78.85
2019-05-06T07:48:08.719Z,78.81
2019-05-06T07:50:39.158Z,77.92
2019-05-06T07:53:10.433Z,77.90
2019-05-06T07:55:42.409Z,78.14
2019-05-06T07:58:13.893Z,78.08
2019-05-06T08:00:44.534Z,78.29
2019-05-06T08:03:14.997Z,78.11
2019-05-06T08:05:54.843Z,77.84
2019-05-06T08:08:17.599Z,77.82
2019-05-06T08:10:48.088Z,77.47
2019-05-06T08:13:18.563Z,76.87
2019-05-06T08:15:49.047Z,76.32
2019-05-06T08:18:21.800Z,76.65
2019-05-06T08:20:52.030Z,74.77
2019-05-06T08:23:32.596Z,73.98
2019-05-06T08:26:11.950Z,73.82
2019-05-06T08:28:40.988Z,73.26
2019-05-06T08:31:07.943Z,72.88
2019-05-06T08:33:38.527Z,73.54
2019-05-06T08:36:14.849Z,73.30
2019-05-06T08:38:56.842Z,73.29
2019-05-06T08:41:27.735Z,72.60
2019-05-06T08:43:58.814Z,72.46
2019-05-06T08:46:29.375Z,72.86
2019-05-06T08:48:59.977Z,73.33
2019-05-06T08:51:36.969Z,73.50
2019-05-06T08:54:13.337Z,73.80
2019-05-06T08:56:43.877Z,74.13
2019-05-06T08:59:14.389Z,74.57
2019-05-06T09:01:49.814Z,74.58
2019-05-06T09:04:22.606Z,74.80
2019-05-06T09:06:53.604Z,75.28
2019-05-06T09:09:24.273Z,75.42
2019-05-06T09:11:54.727Z,75.98
2019-05-06T09:14:25.209Z,75.86
2019-05-06T09:16:55.695Z,76.09
2019-05-06T09:19:26.171Z,76.63
2019-05-06T09:21:56.616Z,77.12
2019-05-06T09:24:27.051Z,76.65
2019-05-06T09:27:06.612Z,77.11
2019-05-06T09:29:48.588Z,76.97
2019-05-06T09:32:23.021Z,76.61
2019-05-06T09:34:55.390Z,77.09
2019-05-06T09:37:26.308Z,77.21
2019-05-06T09:39:57.031Z,76.88
2019-05-06T09:42:27.535Z,76.51
2019-05-06T09:44:58.187Z,75.63
2019-05-06T09:47:56.904Z,75.22
2019-05-06T09:50:45.517Z,74.31
2019-05-06T09:53:17.593Z,72.86
2019-05-06T09:56:06.217Z,72.76
2019-05-06T09:58:42.609Z,73.58
2019-05-06T10:01:13.252Z,74.21
2019-05-06T10:03:43.875Z,75.15
2019-05-06T10:06:14.385Z,75.46
2019-05-06T10:08:44.799Z,75.69
2019-05-06T10:11:15.293Z,75.30
2019-05-06T10:13:45.768Z,74.70
2019-05-06T10:16:16.229Z,74.39
2019-05-06T10:18:46.814Z,74.28
2019-05-06T10:21:17.284Z,72.81
2019-05-06T10:23:47.748Z,73.10
2019-05-06T10:26:18.272Z,72.41
2019-05-06T10:29:02.572Z,71.69
2019-05-06T10:31:38.990Z,71.39
2019-05-06T10:34:14.292Z,72.19
2019-05-06T10:37:12.580Z,73.23
2019-05-06T10:39:43.608Z,72.71
2019-05-06T10:42:19.235Z,72.22
2019-05-06T10:45:05.987Z,71.95
2019-05-06T10:47:36.449Z,72.55
2019-05-06T10:50:07.202Z,70.87
2019-05-06T10:52:59.417Z,67.09
2019-05-06T10:55:32.317Z,65.74
2019-05-06T10:58:02.738Z,64.07
2019-05-06T11:00:33.792Z,63.93
2019-05-06T11:03:14.885Z,63.58
2019-05-06T11:05:44.806Z,63.59
2019-05-06T11:08:15.527Z,64.41
2019-05-06T11:10:47.051Z,62.80
2019-05-06T11:13:17.745Z,59.91
2019-05-06T11:15:48.182Z,59.14
2019-05-06T11:18:18.761Z,56.23
2019-05-06T11:20:49.225Z,54.66
2019-05-06T11:23:21.820Z,53.09
2019-05-06T11:25:52.569Z,52.61
2019-05-06T11:28:45.763Z,51.53
2019-05-06T11:31:38.269Z,50.76
2019-05-06T11:34:18.068Z,49.46
2019-05-06T11:37:15.012Z,50.71
2019-05-06T11:39:45.643Z,54.99
2019-05-06T11:42:27.571Z,53.76
2019-05-06T11:44:48.407Z,53.15
2019-05-06T11:47:18.900Z,52.53
2019-05-06T11:49:55.837Z,52.04
2019-05-06T11:52:24.382Z,56.11
2019-05-06T11:54:54.822Z,59.21
2019-05-06T11:57:25.352Z,62.52
2019-05-06T11:59:55.944Z,64.38
2019-05-06T12:02:27.654Z,63.65
2019-05-06T12:04:58.182Z,59.80
2019-05-06T12:07:28.662Z,56.82
2019-05-06T12:09:59.090Z,57.67
2019-05-06T12:12:29.552Z,60.20
2019-05-06T12:15:00.085Z,63.32
2019-05-06T12:17:30.529Z,64.26
2019-05-06T12:20:02.945Z,64.40
2019-05-06T12:22:36.034Z,63.15
2019-05-06T12:25:11.751Z,60.49
2019-05-06T12:27:46.709Z,59.14
2019-05-06T12:30:23.113Z,57.92
2019-05-06T12:33:13.133Z,55.82
2019-05-06T12:35:47.338Z,55.12
2019-05-06T12:38:30.683Z,55.57
2019-05-06T12:41:00.006Z,57.03
2019-05-06T12:43:45.494Z,56.53
2019-05-06T12:46:23.612Z,58.17
2019-05-06T12:48:54.138Z,59.01
2019-05-06T12:51:24.571Z,58.98
2019-05-06T12:53:55.049Z,56.69
2019-05-06T12:56:25.848Z,57.64
2019-05-06T12:58:56.350Z,54.67
2019-05-06T13:01:26.845Z,55.06
2019-05-06T13:03:57.889Z,55.65
2019-05-06T13:06:28.360Z,57.03
2019-05-06T13:09:04.110Z,57.92
2019-05-06T13:11:31.020Z,59.15
2019-05-06T13:14:04.042Z,58.97
2019-05-06T13:16:33.661Z,58.69
2019-05-06T13:19:05.015Z,60.49
2019-05-06T13:21:35.505Z,60.60
2019-05-06T13:24:07.047Z,61.64
2019-05-06T13:26:37.603Z,62.14
2019-05-06T13:29:14.585Z,63.32
2019-05-06T13:31:45.060Z,65.11
2019-05-06T13:34:20.169Z,67.18
2019-05-06T13:36:52.998Z,68.56
2019-05-06T13:39:23.864Z,69.28
2019-05-06T13:41:54.458Z,66.35
2019-05-06T13:44:25.101Z,65.84
2019-05-06T13:46:55.715Z,63.90
2019-05-06T13:49:35.946Z,63.16
2019-05-06T13:52:07.985Z,64.09
2019-05-06T13:54:38.421Z,65.17
2019-05-06T13:57:09.226Z,65.57
2019-05-06T13:59:39.663Z,66.29
2019-05-06T14:02:27.879Z,66.35
2019-05-06T14:04:58.405Z,66.95
2019-05-06T14:07:29.062Z,66.52
2019-05-06T14:09:59.637Z,66.78
2019-05-06T14:12:32.971Z,65.99
2019-05-06T14:15:04.361Z,64.18
2019-05-06T14:17:34.883Z,62.43
2019-05-06T14:20:09.114Z,60.91
2019-05-06T14:22:43.884Z,59.65
2019-05-06T14:25:43.364Z,58.80
2019-05-06T14:28:24.447Z,59.37
2019-05-06T14:31:07.795Z,60.29
2019-05-06T14:33:38.239Z,60.87
2019-05-06T14:36:08.873Z,60.73
2019-05-06T14:38:39.328Z,59.85
2019-05-06T14:41:13.370Z,59.80
2019-05-06T14:43:43.967Z,60.52
2019-05-06T14:46:14.457Z,60.94
2019-05-06T14:48:45.088Z,60.17
2019-05-06T14:51:15.872Z,60.72
2019-05-06T14:53:46.338Z,61.17
2019-05-06T14:56:35.769Z,61.49
2019-05-06T14:59:09.425Z,61.87
2019-05-06T15:01:44.917Z,61.71
2019-05-06T15:04:13.230Z,61.43
2019-05-06T15:06:43.872Z,61.52
2019-05-06T15:09:15.381Z,62.56
2019-05-06T15:11:45.818Z,62.46
2019-05-06T15:14:16.344Z,62.42
2019-05-06T15:16:46.770Z,63.24
2019-05-06T15:19:17.257Z,63.46
2019-05-06T15:21:47.851Z,63.68
2019-05-06T15:24:21.236Z,64.03
2019-05-06T15:26:52.139Z,63.80
2019-05-06T15:29:23.716Z,63.72
2019-05-06T15:32:13.671Z,63.89
2019-05-06T15:35:02.595Z,61.62
2019-05-06T15:37:43.445Z,62.20
2019-05-06T15:40:14.393Z,62.14
2019-05-06T15:42:45.201Z,62.51
2019-05-06T15:45:16.089Z,63.84
2019-05-06T15:47:46.721Z,65.06
2019-05-06T15:50:17.297Z,65.41
2019-05-06T15:52:47.780Z,65.22
2019-05-06T15:55:18.389Z,64.80
2019-05-06T15:57:48.843Z,64.82
2019-05-06T16:00:22.568Z,64.44
2019-05-06T16:02:53.453Z,63.93
2019-05-06T16:05:26.485Z,63.95
2019-05-06T16:07:56.201Z,63.38
2019-05-06T16:10:27.270Z,63.11
2019-05-06T16:12:57.800Z,63.19
2019-05-06T16:15:28.368Z,63.38
2019-05-06T16:17:58.806Z,64.55
2019-05-06T16:20:29.352Z,62.82
2019-05-06T16:23:09.363Z,63.81
2019-05-06T16:25:39.962Z,64.35
2019-05-06T16:28:12.787Z,63.48
2019-05-06T16:30:42.848Z,62.61
2019-05-06T16:33:16.002Z,62.72
2019-05-06T16:35:46.427Z,63.07
2019-05-06T16:38:16.923Z,63.16
2019-05-06T16:40:47.524Z,64.27
2019-05-06T16:43:18.636Z,64.99
2019-05-06T16:45:49.137Z,64.93
2019-05-06T16:48:19.632Z,64.93
2019-05-06T16:50:50.143Z,64.87
2019-05-06T16:53:22.830Z,63.57
2019-05-06T16:56:08.935Z,63.32
2019-05-06T16:58:46.911Z,63.11
2019-05-06T17:01:15.321Z,63.20
2019-05-06T17:03:54.241Z,63.53
2019-05-06T17:06:27.439Z,63.46
2019-05-06T17:08:58.492Z,63.67
2019-05-06T17:11:33.981Z,62.90
2019-05-06T17:14:03.104Z,62.64
2019-05-06T17:16:35.668Z,62.72
2019-05-06T17:19:07.140Z,62.77
2019-05-06T17:21:38.004Z,62.33
2019-05-06T17:24:08.562Z,62.43
2019-05-06T17:26:39.047Z,61.89
2019-05-06T17:29:40.303Z,61.65
2019-05-06T17:32:17.601Z,61.76
2019-05-06T17:34:52.747Z,61.78
2019-05-06T17:37:49.060Z,61.54
2019-05-06T17:40:26.254Z,60.80
2019-05-06T17:42:58.561Z,60.48
2019-05-06T17:45:57.983Z,61.09
2019-05-06T17:48:42.410Z,60.86
2019-05-06T17:51:17.705Z,61.51
2019-05-06T17:53:52.310Z,61.97
2019-05-06T17:56:23.304Z,62.07
2019-05-06T17:58:53.899Z,61.63
2019-05-06T18:01:33.374Z,61.55
2019-05-06T18:04:04.167Z,62.22
2019-05-06T18:06:34.818Z,62.44
2019-05-06T18:09:08.520Z,62.51
2019-05-06T18:11:39.024Z,62.65
2019-05-06T18:14:09.464Z,63.58
2019-05-06T18:16:40.125Z,63.42
2019-05-06T18:19:12.657Z,63.88
2019-05-06T18:21:42.860Z,63.39
2019-05-06T18:24:13.527Z,64.10
2019-05-06T18:26:57.368Z,64.06
2019-05-06T18:29:27.876Z,64.51
2019-05-06T18:31:58.396Z,64.48
2019-05-06T18:34:28.916Z,64.40
2019-05-06T18:37:04.135Z,64.80
2019-05-06T18:43:07.718Z,65.19
2019-05-06T18:45:45.037Z,65.08
2019-05-06T18:49:06.945Z,65.36
2019-05-06T18:51:42.491Z,66.71
2019-05-06T18:54:17.424Z,67.12
2019-05-06T18:56:52.227Z,66.78
2019-05-06T18:59:25.061Z,66.89
2019-05-06T19:01:57.173Z,67.35
2019-05-06T19:04:41.755Z,67.90
2019-05-06T19:07:16.662Z,68.27
2019-05-06T19:09:52.584Z,68.44
2019-05-06T19:12:30.506Z,68.93
2019-05-06T19:14:55.369Z,69.31
2019-05-06T19:17:25.923Z,69.70
2019-05-06T19:19:56.397Z,69.83
2019-05-06T19:22:26.870Z,69.68
2019-05-06T19:24:57.658Z,70.26
2019-05-06T19:27:28.159Z,70.67
2019-05-06T19:29:58.622Z,71.20
2019-05-06T19:32:29.111Z,70.98
2019-05-06T19:34:59.613Z,71.28
2019-05-06T19:37:32.321Z,71.95
2019-05-06T19:40:03.027Z,72.27
2019-05-06T19:42:46.185Z,71.98
2019-05-06T19:45:07.359Z,71.88
2019-05-06T19:47:37.960Z,72.04
2019-05-06T19:50:08.940Z,71.94
2019-05-06T19:52:39.455Z,72.24
2019-05-06T19:55:12.238Z,72.43
2019-05-06T19:57:43.079Z,72.66
2019-05-06T20:00:14.498Z,72.92
2019-05-06T20:02:44.961Z,72.72
2019-05-06T20:05:25.836Z,72.97
2019-05-06T20:08:15.820Z,73.17
2019-05-06T20:11:02.219Z,73.29
2019-05-06T20:13:32.855Z,73.27
2019-05-06T20:16:03.359Z,73.68
2019-05-06T20:18:33.931Z,74.30
2019-05-06T20:21:04.390Z,75.04
2019-05-06T20:23:34.968Z,75.11
2019-05-06T20:26:05.488Z,74.94
2019-05-06T20:28:37.425Z,75.36
2019-05-06T20:35:17.960Z,75.90
2019-05-06T20:37:53.414Z,75.87
2019-05-06T20:40:27.730Z,76.11
2019-05-06T20:43:14.081Z,76.29
2019-05-06T20:45:35.522Z,76.62
2019-05-06T20:48:32.676Z,76.41
2019-05-06T20:51:03.811Z,76.96
2019-05-06T20:53:34.289Z,77.40
2019-05-06T20:57:12.293Z,78.23
2019-05-06T20:59:50.019Z,78.76
2019-05-06T21:02:42.576Z,78.45
2019-05-06T21:05:15.639Z,78.18
2019-05-06T21:07:46.362Z,78.51
2019-05-06T21:10:42.538Z,79.33
2019-05-06T21:13:35.459Z,79.03
2019-05-06T21:20:23.350Z,79.20
2019-05-06T21:22:55.187Z,79.65
2019-05-06T21:25:25.690Z,79.83
2019-05-06T21:27:56.166Z,79.87
2019-05-06T21:30:26.690Z,80.25
2019-05-06T21:32:58.592Z,79.96
2019-05-06T21:35:48.836Z,79.90
2019-05-06T21:38:46.538Z,80.09
2019-05-06T21:41:26.946Z,80.39
2019-05-06T21:43:58.599Z,80.45
2019-05-06T21:46:29.148Z,80.46
2019-05-06T21:49:04.049Z,80.93
2019-05-06T21:51:34.456Z,80.67
2019-05-06T21:54:06.102Z,80.55
2019-05-06T21:56:37.032Z,80.14
2019-05-06T21:59:07.578Z,80.38
2019-05-06T22:01:39.186Z,80.72
2019-05-06T22:04:09.802Z,81.01
2019-05-06T22:06:56.557Z,80.96
2019-05-06T22:09:32.311Z,81.15
2019-05-06T22:12:11.371Z,81.47
2019-05-06T22:14:42.289Z,81.38
2019-05-06T22:17:14.113Z,81.60
2019-05-06T22:19:44.655Z,81.57
2019-05-06T22:22:16.148Z,81.51
2019-05-06T22:24:55.513Z,81.64
2019-05-06T22:27:22.453Z,81.97
2019-05-06T22:29:52.994Z,81.58
2019-05-06T22:32:23.639Z,82.02
2019-05-06T22:34:54.189Z,81.76
2019-05-06T22:37:24.739Z,81.84
2019-05-06T22:39:55.268Z,82.02
2019-05-06T22:42:25.741Z,81.95
2019-05-06T22:44:56.274Z,81.70
2019-05-06T22:47:26.819Z,81.83
2019-05-06T22:49:57.371Z,81.67
2019-05-06T22:52:27.789Z,81.88
2019-05-06T22:54:58.304Z,82.16
2019-05-06T22:57:28.793Z,82.34
2019-05-06T22:59:59.423Z,82.57
2019-05-06T23:02:45.743Z,82.22
2019-05-06T23:05:16.183Z,82.37
2019-05-06T23:07:46.604Z,82.86
2019-05-06T23:10:17.051Z,82.91
2019-05-06T23:12:47.462Z,83.09
2019-05-06T23:15:17.936Z,83.12
2019-05-06T23:17:48.385Z,83.42
2019-05-06T23:20:18.938Z,83.44
2019-05-06T23:22:49.376Z,83.22
2019-05-06T23:25:21.909Z,83.52
2019-05-06T23:27:52.954Z,83.27
2019-05-06T23:30:23.738Z,83.37
2019-05-06T23:32:54.111Z,83.69
2019-05-06T23:35:24.568Z,83.77
2019-05-06T23:38:49.004Z,83.98
2019-05-06T23:42:13.444Z,83.65
2019-05-06T23:45:37.770Z,83.90
2019-05-06T23:49:02.576Z,83.98
2019-05-06T23:52:26.752Z,84.15
2019-05-06T23:55:51.916Z,84.54
2019-05-06T23:58:20.012Z,84.53
